createdAt,value
2023-01-05T00:00:03.740Z,19.70
2023-01-05T00:03:04.802Z,19.10
2023-01-05T00:05:37.256Z,23.70
2023-01-05T00:08:09.680Z,39.70
2023-01-05T00:10:59.708Z,20.70
2023-01-05T00:13:49.753Z,17.00
2023-01-05T00:16:40.020Z,37.50
2023-01-05T00:19:31.597Z,19.10
2023-01-05T00:22:21.832Z,23.70
2023-01-05T00:24:54.283Z,13.70
2023-01-05T00:27:26.690Z,11.80
2023-01-05T00:29:59.514Z,12.50
2023-01-05T00:32:31.915Z,19.00
2023-01-05T00:35:04.998Z,18.70
2023-01-05T00:37:38.840Z,15.70
2023-01-05T00:40:13.979Z,12.70
2023-01-05T00:45:19.338Z,18.00
2023-01-05T00:47:54.240Z,17.40
2023-01-05T00:50:26.869Z,9.00
2023-01-05T00:52:59.303Z,15.90
2023-01-05T00:55:31.848Z,20.00
2023-01-05T00:58:04.555Z,18.30
2023-01-05T01:00:39.941Z,12.90
2023-01-05T01:03:15.505Z,12.80
2023-01-05T01:05:47.920Z,19.40
2023-01-05T01:08:20.397Z,19.20
2023-01-05T01:10:52.767Z,10.80
2023-01-05T01:13:26.013Z,13.00
2023-01-05T01:18:32.215Z,13.20
2023-01-05T01:21:05.176Z,9.30
2023-01-05T01:23:38.913Z,12.20
2023-01-05T01:26:13.120Z,10.30
2023-01-05T01:28:49.955Z,4.30
2023-01-05T01:31:23.126Z,9.80
2023-01-05T01:33:55.546Z,14.60
2023-01-05T01:36:27.992Z,15.20
2023-01-05T01:39:00.495Z,7.80
2023-01-05T01:41:35.458Z,8.30
2023-01-05T01:44:38.774Z,12.30
2023-01-05T01:47:15.501Z,20.40
2023-01-05T01:49:48.775Z,6.30
2023-01-05T01:52:24.341Z,10.40
2023-01-05T01:54:57.275Z,14.40
2023-01-05T01:57:31.084Z,8.60
2023-01-05T02:00:08.067Z,9.10
2023-01-05T02:02:52.215Z,8.80
2023-01-05T02:05:29.784Z,8.10
2023-01-05T02:08:02.237Z,13.60
2023-01-05T02:10:46.847Z,13.60
2023-01-05T02:13:37.910Z,8.60
2023-01-05T02:16:21.313Z,8.10
2023-01-05T02:19:36.879Z,4.00
2023-01-05T02:22:28.293Z,18.90
2023-01-05T02:25:18.152Z,14.20
2023-01-05T02:27:57.462Z,13.90
2023-01-05T02:31:14.379Z,5.30
2023-01-05T02:34:14.991Z,5.80
2023-01-05T02:36:54.377Z,11.90
2023-01-05T02:39:35.155Z,5.50
2023-01-05T02:42:15.151Z,8.10
2023-01-05T02:44:47.909Z,8.20
2023-01-05T02:47:39.225Z,9.00
2023-01-05T02:50:21.458Z,3.90
2023-01-05T02:53:02.197Z,7.60
2023-01-05T02:55:39.767Z,3.90
2023-01-05T02:58:18.723Z,13.40
2023-01-05T03:00:55.112Z,4.00
2023-01-05T03:03:33.290Z,3.60
2023-01-05T03:06:09.539Z,2.10
2023-01-05T03:08:50.569Z,3.60
2023-01-05T03:11:44.567Z,2.60
2023-01-05T03:14:22.904Z,2.10
2023-01-05T03:16:58.226Z,3.60
2023-01-05T03:19:39.983Z,2.60
2023-01-05T03:22:39.551Z,2.50
2023-01-05T03:25:32.659Z,5.60
2023-01-05T03:28:27.637Z,3.30
2023-01-05T03:31:22.236Z,2.80
2023-01-05T03:34:17.776Z,3.40
2023-01-05T03:39:27.895Z,3.40
2023-01-05T03:42:02.776Z,3.50
2023-01-05T03:44:39.225Z,1.40
2023-01-05T03:47:15.535Z,1.70
2023-01-05T03:49:48.732Z,1.30
2023-01-05T03:52:21.255Z,1.00
2023-01-05T03:54:53.652Z,0.90
2023-01-05T03:57:26.579Z,0.90
2023-01-05T03:59:59.254Z,0.90
2023-01-05T04:02:31.851Z,0.70
2023-01-05T04:05:04.808Z,0.70
2023-01-05T04:07:37.670Z,0.70
2023-01-05T04:10:11.668Z,1.10
2023-01-05T04:12:46.379Z,1.40
2023-01-05T04:15:19.396Z,5.30
2023-01-05T04:17:52.161Z,6.10
2023-01-05T04:20:25.148Z,3.70
2023-01-05T04:22:57.960Z,2.80
2023-01-05T04:25:31.168Z,3.30
2023-01-05T04:28:09.947Z,3.60
2023-01-05T04:30:45.941Z,2.60
2023-01-05T04:33:18.429Z,23.30
2023-01-05T04:35:51.077Z,19.20
2023-01-05T04:38:24.066Z,12.90
2023-01-05T04:40:58.260Z,12.20
2023-01-05T04:43:31.367Z,13.80
2023-01-05T04:46:06.025Z,3.40
2023-01-05T04:48:39.909Z,3.70
2023-01-05T04:51:13.594Z,20.50
2023-01-05T04:53:46.009Z,8.50
2023-01-05T04:56:21.225Z,9.70
2023-01-05T04:58:54.365Z,7.20
2023-01-05T05:01:26.868Z,8.10
2023-01-05T05:04:00.738Z,15.90
2023-01-05T05:06:33.149Z,7.20
2023-01-05T05:09:06.343Z,6.80
2023-01-05T05:11:40.429Z,6.20
2023-01-05T05:14:13.851Z,5.30
2023-01-05T05:16:46.302Z,7.20
2023-01-05T05:19:18.713Z,8.20
2023-01-05T05:21:51.363Z,7.40
2023-01-05T05:24:24.035Z,4.90
2023-01-05T05:26:57.411Z,2.90
2023-01-05T05:29:29.806Z,3.40
2023-01-05T05:32:02.309Z,4.30
2023-01-05T05:34:34.729Z,2.50
2023-01-05T05:37:07.182Z,2.40
2023-01-05T05:39:39.554Z,5.40
2023-01-05T05:42:11.953Z,3.70
2023-01-05T05:44:44.325Z,2.70
2023-01-05T05:47:16.826Z,3.80
2023-01-05T05:49:49.198Z,5.30
2023-01-05T05:52:21.627Z,4.00
2023-01-05T05:54:53.947Z,2.70
2023-01-05T05:57:27.939Z,2.50
2023-01-05T06:00:00.487Z,2.40
2023-01-05T06:02:33.046Z,2.30
2023-01-05T06:05:06.175Z,1.90
2023-01-05T06:07:39.265Z,1.80
2023-01-05T06:10:13.174Z,2.80
2023-01-05T06:12:45.677Z,4.10
2023-01-05T06:15:18.521Z,3.60
2023-01-05T06:17:50.917Z,1.90
2023-01-05T06:20:23.216Z,2.00
2023-01-05T06:22:55.781Z,1.50
2023-01-05T06:25:28.080Z,1.70
2023-01-05T06:28:00.818Z,2.20
2023-01-05T06:30:33.671Z,3.20
2023-01-05T06:33:06.439Z,1.60
2023-01-05T06:35:38.901Z,1.60
2023-01-05T06:38:11.299Z,1.60
2023-01-05T06:40:44.821Z,1.60
2023-01-05T06:43:17.428Z,1.70
2023-01-05T06:45:49.870Z,1.20
2023-01-05T06:48:22.341Z,1.60
2023-01-05T06:50:54.803Z,2.10
2023-01-05T06:53:27.233Z,1.70
2023-01-05T06:55:59.575Z,2.00
2023-01-05T06:58:31.958Z,2.10
2023-01-05T07:01:04.485Z,1.60
2023-01-05T07:03:37.098Z,3.00
2023-01-05T07:06:14.570Z,2.30
2023-01-05T07:08:47.542Z,1.80
2023-01-05T07:11:19.908Z,1.40
2023-01-05T07:13:52.446Z,1.10
2023-01-05T07:16:24.858Z,1.40
2023-01-05T07:18:57.255Z,1.60
2023-01-05T07:21:29.632Z,1.90
2023-01-05T07:24:02.030Z,3.10
2023-01-05T07:26:34.429Z,1.90
2023-01-05T07:29:06.851Z,5.50
2023-01-05T07:31:39.255Z,5.70
2023-01-05T07:34:12.941Z,6.90
2023-01-05T07:36:45.308Z,14.60
2023-01-05T07:39:18.440Z,2.60
2023-01-05T07:41:50.988Z,4.00
2023-01-05T07:44:23.327Z,3.30
2023-01-05T07:46:55.793Z,3.10
2023-01-05T07:49:28.886Z,3.40
2023-01-05T07:52:01.307Z,4.00
2023-01-05T07:54:33.625Z,2.00
2023-01-05T07:57:06.016Z,5.60
2023-01-05T07:59:38.577Z,2.30
2023-01-05T08:02:12.156Z,5.00
2023-01-05T08:04:44.695Z,1.80
2023-01-05T08:07:17.127Z,2.80
2023-01-05T08:10:07.426Z,3.40
2023-01-05T08:12:59.951Z,4.20
2023-01-05T08:15:32.472Z,2.10
2023-01-05T08:18:04.946Z,3.00
2023-01-05T08:20:37.345Z,5.00
2023-01-05T08:23:09.799Z,1.70
2023-01-05T08:25:42.195Z,2.10
2023-01-05T08:28:14.722Z,1.30
2023-01-05T08:30:47.886Z,1.80
2023-01-05T08:33:20.491Z,1.80
2023-01-05T08:35:52.911Z,2.60
2023-01-05T08:38:26.014Z,2.00
2023-01-05T08:41:01.227Z,2.20
2023-01-05T08:43:33.564Z,2.40
2023-01-05T08:46:06.136Z,2.60
2023-01-05T08:48:38.678Z,1.40
2023-01-05T08:51:11.146Z,1.50
2023-01-05T08:53:43.700Z,3.50
2023-01-05T08:56:16.521Z,2.30
2023-01-05T08:58:49.189Z,1.70
2023-01-05T09:01:23.241Z,2.20
2023-01-05T09:03:55.881Z,2.30
2023-01-05T09:06:28.687Z,3.60
2023-01-05T09:09:01.085Z,10.30
2023-01-05T09:11:34.905Z,48.30
2023-01-05T09:14:07.421Z,35.60
2023-01-05T09:17:06.024Z,13.70
2023-01-05T09:19:32.189Z,49.90
2023-01-05T09:22:05.025Z,55.00
2023-01-05T09:24:37.161Z,39.60
2023-01-05T09:27:09.723Z,40.30
2023-01-05T09:29:42.311Z,41.00
2023-01-05T09:32:14.673Z,36.30
2023-01-05T09:34:47.115Z,25.60
2023-01-05T09:37:19.490Z,9.20
2023-01-05T09:39:51.893Z,7.40
2023-01-05T09:42:30.979Z,3.80
2023-01-05T09:45:07.485Z,4.50
2023-01-05T09:47:41.964Z,3.00
2023-01-05T09:50:22.321Z,2.80
2023-01-05T09:52:58.543Z,2.90
2023-01-05T09:55:35.203Z,2.40
2023-01-05T09:58:13.211Z,2.80
2023-01-05T10:01:05.810Z,3.60
2023-01-05T10:06:39.186Z,2.30
2023-01-05T10:09:16.491Z,2.50
2023-01-05T10:12:10.346Z,1.70
2023-01-05T10:14:47.015Z,1.80
2023-01-05T10:20:31.588Z,3.00
2023-01-05T10:23:12.219Z,3.30
2023-01-05T10:25:50.935Z,2.70
2023-01-05T10:28:39.031Z,3.40
2023-01-05T10:31:21.377Z,3.40
2023-01-05T10:34:05.007Z,9.40
2023-01-05T10:37:09.485Z,3.20
2023-01-05T10:40:08.477Z,15.90
2023-01-05T10:42:52.311Z,33.30
2023-01-05T10:45:27.371Z,76.80
2023-01-05T10:50:39.317Z,58.50
2023-01-05T10:53:16.732Z,35.20
2023-01-05T10:55:58.757Z,20.30
2023-01-05T10:58:33.068Z,6.40
2023-01-05T11:01:07.945Z,4.80
2023-01-05T11:09:21.860Z,3.00
2023-01-05T11:12:00.258Z,2.90
2023-01-05T11:14:39.892Z,2.80
2023-01-05T11:17:20.997Z,2.70
2023-01-05T11:19:55.981Z,3.50
2023-01-05T11:25:29.170Z,2.90
2023-01-05T11:28:16.505Z,2.90
2023-01-05T11:31:03.479Z,3.40
2023-01-05T11:33:39.999Z,3.60
2023-01-05T11:36:16.966Z,3.70
2023-01-05T11:38:55.750Z,3.80
2023-01-05T11:41:28.795Z,3.20
2023-01-05T11:44:03.364Z,3.10
2023-01-05T11:46:46.324Z,3.20
2023-01-05T11:49:22.329Z,5.60
2023-01-05T11:51:54.723Z,5.00
2023-01-05T11:54:35.795Z,3.50
2023-01-05T11:57:17.792Z,3.20
2023-01-05T11:59:51.795Z,4.00
2023-01-05T12:02:58.208Z,3.80
2023-01-05T12:05:42.815Z,6.00
2023-01-05T12:08:19.650Z,4.80
2023-01-05T12:11:02.466Z,3.40
2023-01-05T12:16:52.395Z,3.90
2023-01-05T12:19:58.895Z,2.90
2023-01-05T12:22:43.092Z,3.90
2023-01-05T12:25:30.211Z,3.10
2023-01-05T12:28:40.648Z,5.00
2023-01-05T12:34:45.050Z,4.40
2023-01-05T12:37:25.866Z,2.70
2023-01-05T12:40:25.385Z,2.10
2023-01-05T12:43:04.950Z,2.70
2023-01-05T12:46:06.360Z,6.60
2023-01-05T12:48:39.542Z,7.10
2023-01-05T12:51:18.218Z,3.50
2023-01-05T12:53:54.427Z,4.10
2023-01-05T12:56:30.456Z,3.10
2023-01-05T12:59:11.229Z,4.90
2023-01-05T13:01:45.299Z,2.10
2023-01-05T13:04:31.056Z,3.00
2023-01-05T13:07:09.885Z,5.70
2023-01-05T13:09:39.714Z,3.90
2023-01-05T13:12:12.446Z,2.40
2023-01-05T13:14:51.946Z,2.10
2023-01-05T13:17:27.255Z,3.10
2023-01-05T13:20:04.839Z,1.80
2023-01-05T13:22:39.749Z,2.10
2023-01-05T13:30:23.198Z,2.60
2023-01-05T13:33:08.433Z,2.40
2023-01-05T13:36:00.556Z,1.80
2023-01-05T13:39:12.904Z,1.60
2023-01-05T13:42:24.947Z,1.60
2023-01-05T13:45:33.011Z,1.50
2023-01-05T13:48:44.053Z,1.10
2023-01-05T13:51:33.895Z,2.00
2023-01-05T13:54:13.119Z,1.30
2023-01-05T13:56:46.014Z,3.30
2023-01-05T13:59:35.022Z,1.70
2023-01-05T14:02:29.488Z,1.80
2023-01-05T14:04:58.928Z,11.30
2023-01-05T14:07:29.121Z,2.50
2023-01-05T14:09:59.086Z,3.70
2023-01-05T14:12:44.910Z,3.70
2023-01-05T14:15:41.363Z,2.50
2023-01-05T14:18:10.907Z,2.40
2023-01-05T14:20:44.431Z,2.30
2023-01-05T14:23:54.677Z,2.50
2023-01-05T14:26:55.392Z,3.20
2023-01-05T14:30:07.829Z,1.60
2023-01-05T14:32:40.483Z,1.30
2023-01-05T14:35:22.044Z,2.30
2023-01-05T14:37:57.309Z,1.30
2023-01-05T14:40:36.597Z,2.10
2023-01-05T14:43:19.316Z,1.90
2023-01-05T14:46:00.001Z,1.50
2023-01-05T14:48:32.488Z,1.10
2023-01-05T14:51:23.288Z,1.40
2023-01-05T14:53:54.045Z,2.10
2023-01-05T14:56:25.914Z,1.50
2023-01-05T14:59:13.129Z,1.40
2023-01-05T15:01:49.189Z,0.90
2023-01-05T15:04:24.733Z,1.00
2023-01-05T15:07:08.834Z,1.40
2023-01-05T15:09:50.552Z,3.60
2023-01-05T15:12:34.986Z,2.00
2023-01-05T15:15:42.293Z,2.70
2023-01-05T15:18:32.311Z,2.20
2023-01-05T15:21:26.597Z,2.80
2023-01-05T15:24:23.597Z,2.10
2023-01-05T15:27:12.764Z,1.80
2023-01-05T15:30:01.670Z,1.70
2023-01-05T15:32:35.217Z,2.10
2023-01-05T15:35:14.996Z,2.10
2023-01-05T15:37:46.681Z,2.10
2023-01-05T15:40:30.371Z,1.90
2023-01-05T15:43:03.788Z,1.70
2023-01-05T15:45:34.856Z,1.90
2023-01-05T15:48:09.375Z,2.30
2023-01-05T15:50:48.667Z,1.50
2023-01-05T15:53:32.406Z,2.20
2023-01-05T15:56:02.575Z,2.20
2023-01-05T15:58:32.953Z,1.70
2023-01-05T16:01:05.083Z,1.70
2023-01-05T16:03:35.990Z,1.60
2023-01-05T16:06:08.919Z,1.50
2023-01-05T16:08:42.804Z,1.80
2023-01-05T16:11:15.584Z,1.80
2023-01-05T16:13:49.467Z,1.80
2023-01-05T16:16:49.506Z,1.40
2023-01-05T16:19:24.425Z,2.40
2023-01-05T16:21:56.957Z,2.10
2023-01-05T16:24:33.245Z,2.70
2023-01-05T16:27:04.704Z,4.70
2023-01-05T16:29:37.867Z,7.30
2023-01-05T16:32:30.461Z,8.30
2023-01-05T16:35:21.633Z,5.70
2023-01-05T16:38:16.107Z,5.20
2023-01-05T16:41:04.201Z,6.50
2023-01-05T16:43:35.858Z,5.40
2023-01-05T16:46:29.010Z,3.70
2023-01-05T16:49:01.750Z,5.10
2023-01-05T16:51:42.458Z,5.80
2023-01-05T16:54:20.778Z,4.30
2023-01-05T16:56:57.057Z,5.30
2023-01-05T16:59:49.443Z,7.00
2023-01-05T17:02:38.773Z,7.70
2023-01-05T17:05:08.668Z,15.80
2023-01-05T17:07:40.217Z,10.30
2023-01-05T17:10:18.426Z,7.60
2023-01-05T17:13:00.587Z,4.40
2023-01-05T17:15:33.842Z,4.30
2023-01-05T17:18:14.324Z,21.50
2023-01-05T17:20:45.115Z,5.60
2023-01-05T17:23:18.788Z,7.90
2023-01-05T17:25:48.344Z,6.20
2023-01-05T17:28:17.439Z,5.80
2023-01-05T17:30:46.476Z,7.90
2023-01-05T17:33:15.512Z,16.40
2023-01-05T17:35:45.511Z,10.50
2023-01-05T17:38:15.057Z,5.10
2023-01-05T17:40:44.432Z,8.00
2023-01-05T17:43:13.460Z,9.60
2023-01-05T17:45:44.217Z,9.40
2023-01-05T17:48:14.592Z,8.70
2023-01-05T17:50:43.549Z,8.00
2023-01-05T17:53:12.556Z,14.00
2023-01-05T17:55:42.262Z,13.90
2023-01-05T17:58:13.789Z,8.10
2023-01-05T18:03:21.391Z,5.50
2023-01-05T18:05:51.475Z,8.60
2023-01-05T18:08:21.214Z,6.70
2023-01-05T18:10:50.312Z,9.30
2023-01-05T18:13:22.498Z,12.50
2023-01-05T18:15:52.348Z,17.70
2023-01-05T18:18:21.579Z,7.00
2023-01-05T18:20:51.278Z,7.50
2023-01-05T18:23:21.162Z,10.60
2023-01-05T18:25:50.057Z,7.60
2023-01-05T18:28:19.022Z,11.80
2023-01-05T18:30:48.059Z,13.60
2023-01-05T18:33:17.144Z,10.70
2023-01-05T18:35:46.257Z,7.70
2023-01-05T18:38:15.101Z,10.40
2023-01-05T18:40:49.017Z,11.40
2023-01-05T18:43:18.184Z,8.20
2023-01-05T18:45:53.519Z,9.70
2023-01-05T18:48:22.467Z,8.60
2023-01-05T18:50:51.944Z,7.40
2023-01-05T18:53:21.715Z,6.30
2023-01-05T18:55:51.086Z,7.20
2023-01-05T18:58:20.086Z,10.70
2023-01-05T19:00:49.054Z,29.30
2023-01-05T19:03:17.977Z,21.10
2023-01-05T19:05:46.912Z,14.90
2023-01-05T19:08:15.880Z,11.90
2023-01-05T19:10:44.823Z,9.30
2023-01-05T19:13:13.764Z,9.70
2023-01-05T19:15:42.738Z,12.00
2023-01-05T19:18:11.626Z,8.60
2023-01-05T19:20:40.507Z,14.20
2023-01-05T19:23:09.487Z,10.40
2023-01-05T19:25:38.524Z,6.60
2023-01-05T19:28:08.800Z,7.80
2023-01-05T19:30:37.744Z,8.10
2023-01-05T19:33:06.692Z,14.90
2023-01-05T19:35:35.680Z,23.10
2023-01-05T19:38:04.669Z,18.40
2023-01-05T19:40:33.683Z,17.50
2023-01-05T19:43:02.866Z,8.40
2023-01-05T19:45:33.841Z,20.60
2023-01-05T19:48:02.767Z,16.10
2023-01-05T19:50:31.720Z,13.30
2023-01-05T19:53:00.687Z,13.70
2023-01-05T19:55:29.602Z,12.40
2023-01-05T19:57:58.495Z,9.90
2023-01-05T20:00:27.439Z,13.10
2023-01-05T20:02:56.942Z,22.20
2023-01-05T20:05:25.856Z,49.20
2023-01-05T20:07:54.801Z,21.20
2023-01-05T20:10:23.721Z,36.20
2023-01-05T20:12:52.787Z,31.10
2023-01-05T20:15:21.688Z,36.70
2023-01-05T20:17:50.623Z,15.70
2023-01-05T20:20:19.590Z,94.70
2023-01-05T20:22:48.533Z,32.30
2023-01-05T20:25:17.525Z,13.70
2023-01-05T20:27:46.479Z,10.40
2023-01-05T20:30:15.935Z,9.30
2023-01-05T20:32:44.889Z,22.40
2023-01-05T20:35:14.465Z,17.60
2023-01-05T20:37:43.448Z,34.90
2023-01-05T20:40:12.748Z,51.00
2023-01-05T20:42:41.761Z,25.40
2023-01-05T20:45:10.950Z,23.40
2023-01-05T20:47:47.381Z,22.10
2023-01-05T20:50:16.843Z,16.30
2023-01-05T20:52:45.755Z,18.00
2023-01-05T20:55:15.521Z,23.90
2023-01-05T20:57:45.093Z,16.40
2023-01-05T21:00:16.090Z,12.70
2023-01-05T21:02:46.947Z,13.50
2023-01-05T21:05:16.453Z,11.90
2023-01-05T21:07:46.113Z,10.60
2023-01-05T21:10:15.617Z,9.70
2023-01-05T21:12:44.561Z,10.20
2023-01-05T21:15:13.529Z,9.20
2023-01-05T21:17:42.699Z,7.10
2023-01-05T21:20:11.742Z,5.40
2023-01-05T21:22:40.667Z,7.10
2023-01-05T21:25:11.035Z,7.70
2023-01-05T21:27:43.464Z,3.50
2023-01-05T21:30:14.250Z,3.80
2023-01-05T21:32:43.238Z,4.10
2023-01-05T21:35:12.184Z,3.90
2023-01-05T21:37:41.127Z,4.80
2023-01-05T21:40:12.381Z,8.00
2023-01-05T21:42:43.954Z,5.90
2023-01-05T21:45:13.966Z,6.00
2023-01-05T21:47:42.888Z,6.10
2023-01-05T21:50:33.934Z,12.40
2023-01-05T21:53:21.503Z,24.00
2023-01-05T21:56:08.724Z,95.20
2023-01-05T21:58:37.692Z,55.10
2023-01-05T22:01:06.783Z,45.10
2023-01-05T22:03:36.106Z,26.00
2023-01-05T22:06:05.704Z,35.00
2023-01-05T22:08:34.693Z,29.50
2023-01-05T22:11:04.583Z,30.20
2023-01-05T22:13:34.983Z,22.90
2023-01-05T22:16:04.164Z,41.60
2023-01-05T22:18:33.572Z,48.50
2023-01-05T22:21:05.568Z,101.40
2023-01-05T22:23:35.059Z,65.30
2023-01-05T22:26:06.019Z,35.10
2023-01-05T22:28:36.838Z,35.20
2023-01-05T22:31:10.282Z,17.30
2023-01-05T22:33:41.280Z,17.00
2023-01-05T22:36:11.864Z,23.40
2023-01-05T22:38:48.553Z,14.60
2023-01-05T22:41:21.262Z,21.60
2023-01-05T22:43:51.248Z,23.90
2023-01-05T22:46:22.120Z,14.00
2023-01-05T22:48:53.926Z,35.20
2023-01-05T22:51:26.067Z,35.00
2023-01-05T22:53:55.571Z,14.90
2023-01-05T22:56:26.258Z,8.80
2023-01-05T22:58:56.850Z,10.10
2023-01-05T23:01:28.496Z,13.00
2023-01-05T23:03:59.788Z,10.00
2023-01-05T23:06:29.652Z,13.30
2023-01-05T23:08:59.212Z,11.20
2023-01-05T23:11:30.386Z,6.50
2023-01-05T23:14:01.348Z,9.00
2023-01-05T23:16:30.760Z,5.60
2023-01-05T23:19:00.202Z,4.90
2023-01-05T23:21:29.554Z,4.70
2023-01-05T23:23:58.983Z,5.40
2023-01-05T23:26:28.474Z,5.80
2023-01-05T23:28:57.586Z,8.70
2023-01-05T23:31:27.397Z,7.80
2023-01-05T23:33:57.369Z,7.30
2023-01-05T23:36:26.672Z,7.10
2023-01-05T23:38:55.944Z,5.80
2023-01-05T23:41:24.863Z,5.60
2023-01-05T23:43:54.034Z,5.20
2023-01-05T23:46:23.086Z,7.60
2023-01-05T23:48:52.733Z,8.50
2023-01-05T23:51:21.747Z,8.70
2023-01-05T23:53:52.396Z,6.60
2023-01-05T23:56:23.252Z,6.10
2023-01-05T23:58:57.324Z,4.80
